createdAt,value
2022-09-23T00:04:42.892Z,6.03
2022-09-23T00:15:08.820Z,5.80
2022-09-23T00:20:12.696Z,6.05
2022-09-23T00:25:16.796Z,4.80
2022-09-23T00:30:19.642Z,4.32
2022-09-23T00:35:22.512Z,3.47
2022-09-23T00:40:26.637Z,4.75
2022-09-23T00:45:30.924Z,4.30
2022-09-23T00:50:38.700Z,4.25
2022-09-23T00:55:47.582Z,3.50
2022-09-23T01:00:50.701Z,5.43
2022-09-23T01:05:53.973Z,4.63
2022-09-23T01:11:08.797Z,3.20
2022-09-23T01:16:19.514Z,3.80
2022-09-23T01:21:38.628Z,4.70
2022-09-23T01:26:54.212Z,3.25
2022-09-23T01:32:04.343Z,4.18
2022-09-23T01:37:12.621Z,3.92
2022-09-23T01:47:26.224Z,6.53
2022-09-23T01:52:33.498Z,4.22
2022-09-23T01:57:41.447Z,4.60
2022-09-23T02:02:50.808Z,4.28
2022-09-23T02:07:59.846Z,4.80
2022-09-23T02:13:07.321Z,3.63
2022-09-23T02:18:16.141Z,3.70
2022-09-23T02:23:24.356Z,5.38
2022-09-23T02:28:34.765Z,2.72
2022-09-23T02:33:44.482Z,2.92
2022-09-23T02:38:54.402Z,3.15
2022-09-23T02:44:03.540Z,4.93
2022-09-23T02:49:12.719Z,3.17
2022-09-23T02:54:19.572Z,4.57
2022-09-23T02:59:23.975Z,3.80
2022-09-23T03:04:38.368Z,2.90
2022-09-23T03:09:46.784Z,3.38
2022-09-23T03:20:03.002Z,2.90
2022-09-23T03:25:10.491Z,3.65
2022-09-23T03:30:14.685Z,3.97
2022-09-23T03:35:19.213Z,3.78
2022-09-23T03:40:27.143Z,3.35
2022-09-23T03:45:34.137Z,3.15
2022-09-23T03:50:39.267Z,3.83
2022-09-23T03:55:42.165Z,3.25
2022-09-23T04:00:46.751Z,4.55
2022-09-23T04:05:51.645Z,5.95
2022-09-23T04:10:59.666Z,3.50
2022-09-23T04:16:03.203Z,5.05
2022-09-23T04:21:07.607Z,3.60
2022-09-23T04:26:10.923Z,3.60
2022-09-23T04:31:13.687Z,4.78
2022-09-23T04:36:18.058Z,4.55
2022-09-23T04:41:21.084Z,4.93
2022-09-23T04:46:24.192Z,4.47
2022-09-23T04:51:29.421Z,4.55
2022-09-23T04:56:33.573Z,5.47
2022-09-23T05:01:38.477Z,6.18
2022-09-23T05:06:44.980Z,4.47
2022-09-23T05:11:48.169Z,5.07
2022-09-23T05:16:50.945Z,6.85
2022-09-23T05:21:55.412Z,4.45
2022-09-23T05:26:58.176Z,6.07
2022-09-23T05:32:01.517Z,5.03
2022-09-23T05:37:08.237Z,5.80
2022-09-23T05:42:12.329Z,3.95
2022-09-23T05:47:15.436Z,4.47
2022-09-23T05:52:19.948Z,4.25
2022-09-23T05:57:22.766Z,5.78
2022-09-23T06:02:25.599Z,4.93
2022-09-23T06:07:31.549Z,7.50
2022-09-23T06:12:35.809Z,5.82
2022-09-23T06:17:38.638Z,4.93
2022-09-23T06:22:42.808Z,6.25
2022-09-23T06:27:45.771Z,7.90
2022-09-23T06:32:52.128Z,6.00
2022-09-23T06:37:57.414Z,6.30
2022-09-23T06:43:00.819Z,3.97
2022-09-23T06:48:04.822Z,4.93
2022-09-23T06:53:09.138Z,4.07
2022-09-23T06:58:12.662Z,4.82
2022-09-23T07:03:15.588Z,6.47
2022-09-23T07:08:20.104Z,4.40
2022-09-23T07:13:23.568Z,4.25
2022-09-23T07:18:27.803Z,4.75
2022-09-23T07:23:33.475Z,6.15
2022-09-23T07:28:37.044Z,5.75
2022-09-23T07:33:44.038Z,4.13
2022-09-23T07:38:48.417Z,4.47
2022-09-23T07:43:52.663Z,7.00
2022-09-23T07:48:55.789Z,5.82
2022-09-23T07:54:00.236Z,6.45
2022-09-23T07:59:04.059Z,7.97
2022-09-23T08:04:10.165Z,6.95
2022-09-23T08:09:14.836Z,6.18
2022-09-23T08:14:19.061Z,7.22
2022-09-23T08:19:21.920Z,4.55
2022-09-23T08:24:26.521Z,7.68
2022-09-23T08:29:29.647Z,6.22
2022-09-23T08:34:32.381Z,6.97
2022-09-23T08:39:36.467Z,10.38
2022-09-23T08:44:48.045Z,5.85
2022-09-23T08:50:01.597Z,7.15
2022-09-23T08:55:12.236Z,6.28
2022-09-23T09:00:21.572Z,7.63
2022-09-23T09:05:27.800Z,5.70
2022-09-23T09:10:36.598Z,6.72
2022-09-23T09:15:48.509Z,4.60
2022-09-23T09:20:58.943Z,5.22
2022-09-23T09:26:04.578Z,5.28
2022-09-23T09:31:24.157Z,9.05
2022-09-23T09:36:37.228Z,4.22
2022-09-23T09:41:45.404Z,4.47
2022-09-23T09:57:33.528Z,5.53
2022-09-23T10:02:40.761Z,4.90
2022-09-23T10:07:43.576Z,3.75
2022-09-23T10:12:49.069Z,4.95
2022-09-23T10:17:52.408Z,5.72
2022-09-23T10:22:56.637Z,6.45
2022-09-23T10:28:23.521Z,4.18
2022-09-23T10:33:28.203Z,4.90
2022-09-23T10:38:31.246Z,3.28
2022-09-23T10:44:02.198Z,4.43
2022-09-23T10:49:21.117Z,3.63
2022-09-23T10:54:37.202Z,3.88
2022-09-23T10:59:57.715Z,5.07
2022-09-23T11:05:32.605Z,5.90
2022-09-23T11:10:56.689Z,3.45
2022-09-23T11:16:09.009Z,1.60
2022-09-23T11:21:28.929Z,3.33
2022-09-23T11:26:42.952Z,2.47
2022-09-23T11:31:59.782Z,2.20
2022-09-23T11:37:07.282Z,2.42
2022-09-23T11:42:18.293Z,1.83
2022-09-23T11:47:26.951Z,3.83
2022-09-23T11:52:34.672Z,3.35
2022-09-23T11:57:49.735Z,4.13
2022-09-23T12:03:06.550Z,2.58
2022-09-23T12:08:20.628Z,3.15
2022-09-23T12:13:31.515Z,2.38
2022-09-23T12:18:49.594Z,3.60
2022-09-23T12:29:08.237Z,3.45
2022-09-23T12:34:24.135Z,1.80
2022-09-23T12:39:31.686Z,3.47
2022-09-23T12:44:40.680Z,3.80
2022-09-23T12:49:45.258Z,2.78
2022-09-23T12:54:49.831Z,3.50
2022-09-23T12:59:58.971Z,3.50
2022-09-23T13:05:35.096Z,1.73
2022-09-23T13:10:45.030Z,4.32
2022-09-23T13:15:48.312Z,2.42
2022-09-23T13:20:53.957Z,2.00
2022-09-23T13:26:00.417Z,2.08
2022-09-23T13:31:06.219Z,4.47
2022-09-23T13:36:15.279Z,4.43
2022-09-23T13:41:20.677Z,3.83
2022-09-23T13:46:26.855Z,2.70
2022-09-23T13:51:35.093Z,2.38
2022-09-23T13:56:37.999Z,2.60
2022-09-23T14:01:40.897Z,2.30
2022-09-23T14:06:45.229Z,2.17
2022-09-23T14:11:48.223Z,2.92
2022-09-23T14:16:53.355Z,2.38
2022-09-23T14:21:58.992Z,1.95
2022-09-23T14:27:10.489Z,2.03
2022-09-23T14:32:17.280Z,3.08
2022-09-23T14:37:46.569Z,2.00
2022-09-23T14:42:52.667Z,6.47
2022-09-23T14:48:00.153Z,2.75
2022-09-23T14:53:04.290Z,2.63
2022-09-23T14:58:17.846Z,5.38
2022-09-23T15:03:22.072Z,2.58
2022-09-23T15:08:28.770Z,4.57
2022-09-23T15:13:34.291Z,4.68
2022-09-23T15:18:38.751Z,8.43
2022-09-23T15:23:48.897Z,9.38
2022-09-23T15:28:54.067Z,7.47
2022-09-23T15:33:57.169Z,8.00
2022-09-23T15:39:06.217Z,5.65
2022-09-23T15:44:13.778Z,3.10
2022-09-23T15:49:23.386Z,5.30
2022-09-23T15:54:27.794Z,5.82
2022-09-23T15:59:31.633Z,3.38
2022-09-23T16:04:35.974Z,3.63
2022-09-23T16:09:40.494Z,3.45
2022-09-23T16:14:43.429Z,12.35
2022-09-23T16:19:46.299Z,4.45
2022-09-23T16:24:50.473Z,9.27
2022-09-23T16:29:53.597Z,7.80
2022-09-23T16:34:58.514Z,6.28
2022-09-23T16:40:03.795Z,11.07
2022-09-23T16:45:07.721Z,3.35
2022-09-23T16:50:11.170Z,10.77
2022-09-23T16:55:17.347Z,5.70
2022-09-23T17:00:38.823Z,5.90
2022-09-23T17:05:42.954Z,10.73
2022-09-23T17:10:58.623Z,8.05
2022-09-23T17:16:02.335Z,9.07
2022-09-23T17:21:09.067Z,12.05
2022-09-23T17:26:13.795Z,5.45
2022-09-23T17:31:16.745Z,4.75
2022-09-23T17:36:20.693Z,6.95
2022-09-23T17:41:25.030Z,9.68
2022-09-23T17:46:31.029Z,5.00
2022-09-23T17:51:35.772Z,8.02
2022-09-23T17:56:42.843Z,8.40
2022-09-23T18:01:46.255Z,7.88
2022-09-23T18:06:49.444Z,7.72
2022-09-23T18:11:54.170Z,7.82
2022-09-23T18:16:57.611Z,12.18
2022-09-23T18:22:01.945Z,5.70
2022-09-23T18:27:07.377Z,9.75
2022-09-23T18:32:13.976Z,10.60
2022-09-23T18:37:17.290Z,9.15
2022-09-23T18:42:21.617Z,9.23
2022-09-23T18:47:41.581Z,10.45
2022-09-23T18:52:44.447Z,12.65
2022-09-23T18:57:49.069Z,9.75
2022-09-23T19:02:52.825Z,5.60
2022-09-23T19:07:55.608Z,5.20
2022-09-23T19:13:00.622Z,8.35
2022-09-23T19:18:03.472Z,7.38
2022-09-23T19:23:06.870Z,10.60
2022-09-23T19:28:11.066Z,16.35
2022-09-23T19:33:13.950Z,16.63
2022-09-23T19:38:17.626Z,12.48
2022-09-23T19:43:21.997Z,13.32
2022-09-23T19:48:25.067Z,8.05
2022-09-23T19:53:28.368Z,9.73
2022-09-23T19:58:33.087Z,9.50
2022-09-23T20:03:35.881Z,6.18
2022-09-23T20:08:39.242Z,6.53
2022-09-23T20:13:47.150Z,5.22
2022-09-23T20:18:53.687Z,11.75
2022-09-23T20:23:56.919Z,8.82
2022-09-23T20:29:01.540Z,6.00
2022-09-23T20:34:05.892Z,12.23
2022-09-23T20:39:10.028Z,6.65
2022-09-23T20:44:14.216Z,24.42
2022-09-23T20:49:17.995Z,11.27
2022-09-23T20:54:21.069Z,13.18
2022-09-23T20:59:27.169Z,11.45
2022-09-23T21:04:31.388Z,7.05
2022-09-23T21:09:34.158Z,7.68
2022-09-23T21:14:39.416Z,14.35
2022-09-23T21:19:42.214Z,10.80
2022-09-23T21:25:25.954Z,11.77
2022-09-23T21:30:10.933Z,10.35
2022-09-23T21:35:13.873Z,15.90
2022-09-23T21:40:34.561Z,13.93
2022-09-23T21:45:39.044Z,13.85
2022-09-23T21:50:42.220Z,10.57
2022-09-23T21:55:48.788Z,10.80
2022-09-23T22:00:52.949Z,8.10
2022-09-23T22:06:04.160Z,8.43
2022-09-23T22:11:08.886Z,8.25
2022-09-23T22:16:16.648Z,8.07
2022-09-23T22:21:20.531Z,11.60
2022-09-23T22:26:23.802Z,8.63
2022-09-23T22:31:45.459Z,8.98
2022-09-23T22:36:48.310Z,9.57
2022-09-23T22:41:51.350Z,10.70
2022-09-23T22:46:55.490Z,11.15
2022-09-23T22:51:59.563Z,10.05
2022-09-23T22:57:04.335Z,11.48
2022-09-23T23:02:08.624Z,8.43
2022-09-23T23:07:11.926Z,9.38
2022-09-23T23:12:14.717Z,12.27
2022-09-23T23:17:18.907Z,14.35
2022-09-23T23:22:21.718Z,12.27
2022-09-23T23:27:24.488Z,13.18
2022-09-23T23:32:28.551Z,11.07
2022-09-23T23:37:31.278Z,10.73
2022-09-23T23:42:34.617Z,10.82
2022-09-23T23:47:39.920Z,11.45
2022-09-23T23:52:42.630Z,10.32
2022-09-23T23:57:45.354Z,11.05
